Time;durP1;ratioP1;P1;durP2;ratioP2;P2;SDS_P1;SDS_P2;PMS_P1;PMS_P2;Temp;Humidity;BMP_temperature;BMP_pressure;BME280_temperature;BME280_humidity;BME280_pressure;Samples;Min_cycle;Max_cycle;Signal;HPM_P1;HPM_P2
2023/03/12 00:01:14;;;;;;;9.23;4.72;;;;;;;4.92;52.13;99176.34;5086570;28;20087;-58
2023/03/12 00:03:39;;;;;;;8.52;5.18;;;;;;;4.85;52.54;99173.88;5087126;28;20039;-57
2023/03/12 00:06:06;;;;;;;8.32;5.07;;;;;;;4.88;52.66;99166.00;5086657;28;20032;-58
2023/03/12 00:08:32;;;;;;;7.55;4.30;;;;;;;5.18;52.07;99173.22;5087245;28;20070;-57
2023/03/12 00:10:58;;;;;;;9.60;4.65;;;;;;;4.83;53.03;99170.44;5080059;28;20040;-58
2023/03/12 00:13:23;;;;;;;8.88;4.90;;;;;;;4.64;53.70;99178.56;5091816;28;20036;-57
2023/03/12 00:15:49;;;;;;;8.57;5.20;;;;;;;4.86;53.21;99165.16;5077901;28;20064;-57
2023/03/12 00:18:14;;;;;;;11.45;4.55;;;;;;;5.04;53.02;99177.84;5082552;28;20062;-58
2023/03/12 00:20:40;;;;;;;9.13;4.03;;;;;;;4.58;54.19;99181.25;5090264;28;20089;-58
2023/03/12 00:23:06;;;;;;;12.05;4.65;;;;;;;4.69;54.32;99168.06;5088467;28;20035;-58
2023/03/12 00:25:31;;;;;;;9.55;4.90;;;;;;;4.84;53.84;99164.34;5091398;28;20480;-57
2023/03/12 00:27:57;;;;;;;7.50;3.95;;;;;;;5.25;52.98;99170.53;5090019;28;20039;-58
2023/03/12 00:30:23;;;;;;;7.00;4.18;;;;;;;5.32;52.88;99166.91;5092180;28;20039;-58
2023/03/12 00:32:48;;;;;;;9.45;4.97;;;;;;;5.15;54.24;99175.91;5072658;28;20028;-58
2023/03/12 00:35:14;;;;;;;8.43;4.00;;;;;;;5.33;53.87;99182.50;5089042;28;20425;-57
2023/03/12 00:37:39;;;;;;;11.85;5.13;;;;;;;5.21;55.17;99192.31;5079265;28;20055;-58
2023/03/12 00:40:07;;;;;;;7.88;3.75;;;;;;;4.85;56.61;99192.09;5089554;28;20537;-57
2023/03/12 00:42:32;;;;;;;8.77;3.83;;;;;;;5.01;56.07;99184.84;5091205;28;20028;-58
2023/03/12 00:44:58;;;;;;;7.90;3.88;;;;;;;5.25;55.58;99178.34;5091948;28;20047;-58
2023/03/12 00:47:23;;;;;;;6.78;3.85;;;;;;;5.36;55.24;99171.19;5092955;28;20038;-59
2023/03/12 00:49:49;;;;;;;6.68;3.72;;;;;;;5.55;54.98;99174.28;5094645;28;20537;-57
2023/03/12 00:52:15;;;;;;;11.57;5.72;;;;;;;5.62;55.26;99176.72;5079620;28;20027;-57
2023/03/12 00:54:41;;;;;;;8.02;4.72;;;;;;;5.18;57.71;99182.78;5095727;28;20039;-57
2023/03/12 00:57:06;;;;;;;7.53;4.32;;;;;;;5.01;58.45;99175.31;5094865;28;20040;-57
2023/03/12 00:59:32;;;;;;;8.05;4.13;;;;;;;4.87;59.79;99177.31;5095016;28;20032;-58
2023/03/12 01:01:57;;;;;;;11.18;4.13;;;;;;;5.06;59.12;99176.06;5092627;28;20081;-57
2023/03/12 01:04:23;;;;;;;7.00;4.05;;;;;;;5.05;59.24;99182.16;5094987;28;20028;-57
2023/03/12 01:06:49;;;;;;;5.75;3.60;;;;;;;4.95;59.70;99178.03;5095217;28;20034;-56
2023/03/12 01:09:14;;;;;;;6.57;3.35;;;;;;;5.26;58.38;99170.47;5095205;28;20024;-57
2023/03/12 01:11:40;;;;;;;5.57;3.10;;;;;;;5.30;57.85;99174.75;5078402;28;20436;-56
2023/03/12 01:14:07;;;;;;;5.53;3.83;;;;;;;5.44;57.69;99171.88;5093176;28;20046;-57
2023/03/12 01:16:33;;;;;;;8.25;4.25;;;;;;;5.03;59.88;99178.75;5095234;28;20032;-57
2023/03/12 01:18:59;;;;;;;6.60;4.18;;;;;;;5.18;58.68;99178.44;5096280;28;20100;-58
2023/03/12 01:21:26;;;;;;;10.05;3.83;;;;;;;5.36;58.39;99186.81;5087364;28;20074;-58
2023/03/12 01:23:52;;;;;;;6.93;3.70;;;;;;;5.04;60.81;99196.09;5093958;28;20468;-58
2023/03/12 01:26:17;;;;;;;6.32;3.80;;;;;;;5.15;61.46;99201.97;5093405;28;20059;-58
2023/03/12 01:28:43;;;;;;;5.82;3.83;;;;;;;4.96;62.21;99182.34;5096197;28;20111;-58
2023/03/12 01:31:11;;;;;;;6.25;4.55;;;;;;;5.21;61.29;99167.13;5094656;28;20040;-59
2023/03/12 01:33:37;;;;;;;9.85;5.15;;;;;;;5.25;61.04;99168.78;5093303;28;20038;-58
2023/03/12 01:36:04;;;;;;;7.90;4.10;;;;;;;5.25;60.98;99168.78;5095545;28;20036;-57
2023/03/12 01:38:29;;;;;;;7.28;3.90;;;;;;;5.08;63.01;99183.88;5094679;28;20134;-58
2023/03/12 01:40:55;;;;;;;9.50;4.30;;;;;;;4.98;62.35;99175.34;5094374;28;20504;-56
2023/03/12 01:43:20;;;;;;;5.25;3.60;;;;;;;4.94;62.04;99179.75;5095271;28;20024;-58
2023/03/12 01:46:23;;;;;;;5.38;3.42;;;;;;;4.98;62.78;99175.34;5093023;28;20044;-58
2023/03/12 01:49:06;;;;;;;8.40;3.70;;;;;;;5.07;63.02;99180.41;5095126;28;20111;-58
2023/03/12 01:51:40;;;;;;;4.97;3.10;;;;;;;4.96;63.02;99166.72;5094310;28;20063;-58
2023/03/12 01:54:20;;;;;;;4.72;3.15;;;;;;;4.63;63.15;99184.66;5092163;28;20038;-58
2023/03/12 01:56:46;;;;;;;4.80;2.58;;;;;;;4.55;62.97;99185.63;5092537;28;20115;-58
2023/03/12 01:59:21;;;;;;;4.53;2.50;;;;;;;4.70;62.52;99188.00;5094744;28;20040;-58
2023/03/12 02:01:48;;;;;;;3.08;1.83;;;;;;;4.43;62.79;99192.78;5094722;28;20111;-57
2023/03/12 02:04:16;;;;;;;3.75;1.85;;;;;;;4.50;62.40;99192.66;5093165;28;20024;-58
2023/03/12 02:06:59;;;;;;;2.13;1.23;;;;;;;4.53;62.25;99201.28;5089550;28;20032;-58
2023/03/12 02:09:25;;;;;;;4.47;1.48;;;;;;;4.42;62.98;99200.59;5093006;28;20035;-57
2023/03/12 02:11:51;;;;;;;2.20;1.42;;;;;;;4.61;62.98;99209.81;5092361;28;20102;-57
2023/03/12 02:14:16;;;;;;;2.60;1.52;;;;;;;5.13;61.58;99208.94;5090025;28;20040;-56
2023/03/12 02:16:42;;;;;;;2.60;1.30;;;;;;;5.38;61.00;99211.06;5092206;28;20035;-58
2023/03/12 02:19:17;;;;;;;3.42;1.35;;;;;;;5.21;62.01;99215.75;5089821;28;20040;-58
2023/03/12 02:21:43;;;;;;;2.50;1.45;;;;;;;4.83;63.29;99214.69;5093760;28;20062;-57
2023/03/12 02:24:23;;;;;;;1.42;0.93;;;;;;;4.48;63.91;99215.25;5090265;28;20040;-58
2023/03/12 02:26:48;;;;;;;1.95;0.55;;;;;;;4.63;62.59;99210.66;5091811;28;20123;-58
2023/03/12 02:29:15;;;;;;;1.95;0.75;;;;;;;4.81;61.52;99211.25;5089923;28;20111;-60
2023/03/12 02:31:49;;;;;;;1.00;0.60;;;;;;;4.30;62.38;99221.56;5093036;28;20054;-58
2023/03/12 02:34:14;;;;;;;2.25;0.57;;;;;;;4.37;62.11;99229.28;5093008;28;20452;-58
2023/03/12 02:36:40;;;;;;;1.13;0.50;;;;;;;4.04;62.21;99225.41;5090240;28;20077;-57
2023/03/12 02:39:05;;;;;;;2.17;0.65;;;;;;;4.00;61.75;99234.13;5088188;28;20491;-57
2023/03/12 02:41:53;;;;;;;2.42;0.52;;;;;;;4.18;61.61;99233.00;5056069;28;20040;-57
2023/03/12 02:44:22;;;;;;;1.70;0.50;;;;;;;3.89;61.13;99229.06;5091202;28;20101;-57
2023/03/12 02:46:50;;;;;;;2.80;0.50;;;;;;;4.14;61.19;99229.59;5091084;28;20478;-58
2023/03/12 02:49:18;;;;;;;1.60;0.40;;;;;;;4.19;60.54;99219.16;5092407;28;20056;-58
2023/03/12 02:51:45;;;;;;;0.73;0.40;;;;;;;4.12;60.27;99227.91;5091713;28;20024;-57
2023/03/12 02:54:12;;;;;;;4.90;0.50;;;;;;;3.99;60.58;99224.63;5093380;28;20036;-57
2023/03/12 02:56:38;;;;;;;1.25;0.50;;;;;;;4.06;60.49;99225.38;5093923;28;20379;-58
2023/03/12 02:59:05;;;;;;;2.72;0.50;;;;;;;3.89;60.63;99225.63;5091552;28;20039;-58
2023/03/12 03:01:33;;;;;;;1.65;0.30;;;;;;;3.64;60.99;99238.91;5090437;28;20118;-58
2023/03/12 03:03:59;;;;;;;1.85;0.50;;;;;;;3.94;60.28;99242.00;5092885;28;20112;-58
2023/03/12 03:06:25;;;;;;;2.60;0.63;;;;;;;3.82;60.54;99234.34;5094101;28;20119;-58
2023/03/12 03:08:50;;;;;;;2.42;0.40;;;;;;;4.05;59.63;99234.94;5092692;28;20450;-58
2023/03/12 03:11:16;;;;;;;1.00;0.50;;;;;;;3.97;59.98;99239.38;5093501;28;20028;-58
2023/03/12 03:13:42;;;;;;;2.20;0.50;;;;;;;3.80;59.83;99238.72;5093127;28;20032;-58
2023/03/12 03:16:07;;;;;;;1.08;0.43;;;;;;;3.98;59.48;99246.28;5092690;28;20119;-58
2023/03/12 03:18:33;;;;;;;1.65;0.60;;;;;;;3.70;60.00;99250.97;5087700;28;20140;-58
2023/03/12 03:21:05;;;;;;;3.38;0.80;;;;;;;3.56;60.51;99258.91;5092830;28;20042;-58
2023/03/12 03:23:31;;;;;;;5.35;0.50;;;;;;;3.30;60.93;99258.31;5092573;28;20137;-58
2023/03/12 03:25:57;;;;;;;3.00;0.50;;;;;;;3.67;59.54;99264.88;5092425;28;20070;-58
2023/03/12 03:28:24;;;;;;;1.63;0.50;;;;;;;3.56;59.46;99274.50;5089877;28;20426;-57
2023/03/12 03:31:00;;;;;;;2.33;0.50;;;;;;;3.58;59.54;99272.75;5084504;28;20405;-57
2023/03/12 03:33:27;;;;;;;2.28;0.47;;;;;;;3.61;59.66;99270.13;5092023;28;20028;-57
2023/03/12 03:35:54;;;;;;;4.97;0.77;;;;;;;3.37;59.43;99278.16;5090223;28;20119;-57
2023/03/12 03:38:20;;;;;;;2.75;0.68;;;;;;;3.54;59.18;99278.84;5092271;28;20044;-58
2023/03/12 03:40:46;;;;;;;2.15;0.68;;;;;;;3.27;59.96;99284.31;5091625;28;20060;-57
2023/03/12 03:43:11;;;;;;;2.60;0.68;;;;;;;3.59;58.91;99287.47;5090276;28;20440;-58
2023/03/12 03:45:37;;;;;;;2.80;0.43;;;;;;;3.49;59.08;99298.81;5091702;28;20432;-58
2023/03/12 03:48:02;;;;;;;4.40;0.85;;;;;;;3.43;58.91;99298.88;5089861;28;20036;-58
2023/03/12 03:50:28;;;;;;;3.70;0.50;;;;;;;3.20;59.72;99306.91;5091023;28;20384;-57
2023/03/12 03:52:53;;;;;;;3.88;0.70;;;;;;;3.45;58.45;99292.78;5090573;28;20494;-58
2023/03/12 03:55:19;;;;;;;2.72;0.60;;;;;;;3.28;59.15;99312.03;5091387;28;20467;-57
2023/03/12 03:57:44;;;;;;;2.63;0.50;;;;;;;3.11;59.53;99310.44;5090678;28;20032;-56
2023/03/12 04:00:12;;;;;;;4.57;0.93;;;;;;;3.37;59.07;99312.78;5091792;28;20069;-55
2023/03/12 04:02:38;;;;;;;3.15;0.60;;;;;;;3.19;59.60;99319.03;5091627;28;20122;-57
2023/03/12 04:05:04;;;;;;;2.88;0.65;;;;;;;3.25;59.32;99322.44;5091377;28;20161;-58
2023/03/12 04:07:29;;;;;;;3.67;0.98;;;;;;;3.00;59.88;99317.44;5091763;28;20475;-57
2023/03/12 04:09:56;;;;;;;1.50;0.50;;;;;;;3.10;59.51;99323.41;5092635;28;20395;-57
2023/03/12 04:12:24;;;;;;;3.28;0.52;;;;;;;2.81;59.95;99324.50;5093052;28;20492;-57
2023/03/12 04:14:50;;;;;;;1.40;0.40;;;;;;;3.04;59.57;99313.09;5093000;28;20115;-57
2023/03/12 04:17:16;;;;;;;2.88;0.30;;;;;;;3.26;58.91;99326.75;5056545;28;20040;-56
2023/03/12 04:19:42;;;;;;;0.80;0.32;;;;;;;3.20;59.16;99323.31;5090536;28;20039;-56
2023/03/12 04:22:07;;;;;;;2.15;0.75;;;;;;;2.95;59.67;99333.06;5074456;28;20040;-56
2023/03/12 04:24:33;;;;;;;1.92;0.30;;;;;;;2.95;59.70;99339.94;5091852;28;20047;-57
2023/03/12 04:26:58;;;;;;;1.20;0.38;;;;;;;3.09;59.35;99340.72;5090494;28;20038;-56
2023/03/12 04:29:24;;;;;;;4.32;0.57;;;;;;;2.95;59.64;99345.13;5091210;28;20064;-57
2023/03/12 04:31:50;;;;;;;3.35;0.50;;;;;;;3.10;58.98;99339.84;5090262;28;20413;-57
2023/03/12 04:34:15;;;;;;;1.88;0.47;;;;;;;2.72;60.00;99346.19;5091221;28;20032;-56
2023/03/12 04:36:40;;;;;;;2.60;0.38;;;;;;;3.04;59.58;99352.88;5090080;28;20046;-57
2023/03/12 04:39:06;;;;;;;4.50;0.68;;;;;;;2.87;59.65;99344.34;5090556;28;20101;-58
2023/03/12 04:41:34;;;;;;;5.80;0.70;;;;;;;2.99;59.44;99348.56;5090843;28;20387;-57
2023/03/12 04:43:59;;;;;;;4.13;0.52;;;;;;;3.08;58.96;99345.94;5091385;28;20225;-57
2023/03/12 04:46:25;;;;;;;2.35;0.50;;;;;;;3.08;59.13;99340.75;5092162;28;20507;-58
2023/03/12 04:48:50;;;;;;;3.47;0.98;;;;;;;3.09;59.19;99343.31;5090542;28;20028;-57
2023/03/12 04:51:16;;;;;;;4.72;0.93;;;;;;;2.88;59.81;99344.34;5091695;28;20191;-57
2023/03/12 04:53:42;;;;;;;4.95;0.70;;;;;;;2.83;60.02;99338.34;5091449;28;20069;-57
2023/03/12 04:56:07;;;;;;;6.72;0.65;;;;;;;2.95;59.43;99340.84;5090826;28;20075;-59
2023/03/12 04:58:34;;;;;;;5.00;0.43;;;;;;;3.02;59.03;99346.81;5091963;28;20046;-58
2023/03/12 05:01:00;;;;;;;1.00;0.38;;;;;;;2.84;59.64;99349.56;5091182;28;20035;-58
2023/03/12 05:03:26;;;;;;;1.45;0.40;;;;;;;2.81;59.47;99347.00;5088806;28;20028;-58
2023/03/12 05:05:51;;;;;;;1.45;0.50;;;;;;;3.12;58.83;99350.22;5089699;28;20028;-58
2023/03/12 05:08:17;;;;;;;2.35;0.50;;;;;;;3.01;59.01;99347.69;5088462;28;20036;-58
2023/03/12 05:10:44;;;;;;;2.83;0.40;;;;;;;3.19;58.37;99346.69;5091790;28;20047;-57
2023/03/12 05:13:21;;;;;;;2.35;0.55;;;;;;;2.76;58.91;99360.00;5092410;28;20421;-58
2023/03/12 05:15:49;;;;;;;4.03;0.73;;;;;;;2.98;58.67;99352.91;5090457;28;20537;-58
2023/03/12 05:18:15;;;;;;;3.42;0.50;;;;;;;3.16;57.80;99359.72;5090380;28;20028;-59
2023/03/12 05:20:41;;;;;;;3.00;0.60;;;;;;;3.19;57.79;99352.75;5083250;28;20059;-56
2023/03/12 05:23:07;;;;;;;2.58;0.50;;;;;;;3.25;57.67;99353.56;5090985;28;20041;-57
2023/03/12 05:25:32;;;;;;;5.63;0.50;;;;;;;3.35;57.21;99358.69;5090517;28;20498;-58
2023/03/12 05:27:58;;;;;;;3.85;0.55;;;;;;;3.37;57.24;99374.25;5092229;28;20059;-58
2023/03/12 05:30:23;;;;;;;2.65;0.57;;;;;;;3.14;57.54;99380.47;5087623;28;20051;-58
2023/03/12 05:32:49;;;;;;;2.15;0.80;;;;;;;3.15;57.91;99396.91;5072450;28;20502;-58
2023/03/12 05:35:14;;;;;;;3.58;0.47;;;;;;;3.25;57.59;99379.53;5093962;28;20040;-58
2023/03/12 05:37:41;;;;;;;3.22;0.60;;;;;;;3.18;57.92;99387.38;5094195;28;20046;-57
2023/03/12 05:40:10;;;;;;;1.65;0.70;;;;;;;3.41;57.33;99382.00;5095450;28;20043;-58
2023/03/12 05:42:36;;;;;;;2.45;0.55;;;;;;;3.69;56.82;99385.19;5093959;28;20035;-58
2023/03/12 05:45:03;;;;;;;2.90;0.57;;;;;;;3.40;56.91;99384.63;5093454;28;20559;-56
2023/03/12 05:47:29;;;;;;;4.38;0.57;;;;;;;3.64;56.73;99402.56;5088116;28;20024;-59
2023/03/12 05:49:54;;;;;;;2.92;0.50;;;;;;;3.51;57.00;99400.97;5094189;28;20391;-58
2023/03/12 05:52:20;;;;;;;4.55;0.68;;;;;;;3.35;57.05;99401.94;5091618;28;20055;-57
2023/03/12 05:54:45;;;;;;;4.93;0.98;;;;;;;3.31;57.63;99403.72;5096996;28;20035;-57
2023/03/12 05:57:11;;;;;;;4.30;0.60;;;;;;;3.47;57.23;99399.25;5094236;28;20044;-57
2023/03/12 05:59:36;;;;;;;3.92;0.85;;;;;;;3.90;56.31;99411.84;5092976;28;20123;-57
2023/03/12 06:02:02;;;;;;;2.35;0.57;;;;;;;3.76;55.73;99413.72;5095162;28;20395;-59
2023/03/12 06:04:28;;;;;;;3.42;0.63;;;;;;;4.04;55.29;99407.38;5093338;28;20051;-58
2023/03/12 06:06:53;;;;;;;3.00;0.50;;;;;;;4.09;54.96;99415.97;5095248;28;20036;-58
2023/03/12 06:09:19;;;;;;;5.13;0.70;;;;;;;4.02;54.59;99419.50;5087029;28;20399;-58
2023/03/12 06:11:44;;;;;;;7.80;0.90;;;;;;;3.69;54.49;99423.31;5076742;28;20064;-58
2023/03/12 06:14:10;;;;;;;7.47;1.10;;;;;;;3.90;54.45;99420.50;5071438;28;20044;-57
2023/03/12 06:16:35;;;;;;;1.73;0.60;;;;;;;3.50;54.69;99433.00;5089675;28;20559;-57
2023/03/12 06:19:02;;;;;;;0.88;0.52;;;;;;;4.17;54.07;99424.56;5095029;28;20115;-57
2023/03/12 06:21:30;;;;;;;2.88;0.65;;;;;;;4.15;53.62;99438.47;5086273;28;20542;-58
2023/03/12 06:23:57;;;;;;;2.53;0.50;;;;;;;4.10;53.21;99435.03;5094191;28;20101;-58
2023/03/12 06:26:24;;;;;;;2.70;0.70;;;;;;;4.37;53.22;99423.47;5093975;28;20032;-58
2023/03/12 06:28:50;;;;;;;3.78;0.52;;;;;;;4.38;53.51;99446.84;5095127;28;20060;-58
2023/03/12 06:31:16;;;;;;;1.90;0.43;;;;;;;4.32;53.96;99443.47;5093761;28;20383;-57
2023/03/12 06:33:42;;;;;;;1.75;0.65;;;;;;;4.18;54.31;99447.06;5092594;28;20134;-55
2023/03/12 06:36:08;;;;;;;2.08;0.60;;;;;;;4.40;53.88;99452.06;5092621;28;20094;-56
2023/03/12 06:38:35;;;;;;;4.30;0.80;;;;;;;4.59;53.58;99448.38;5078369;28;20040;-58
2023/03/12 06:41:04;;;;;;;6.10;0.98;;;;;;;4.70;53.21;99459.47;5094445;28;20060;-58
2023/03/12 06:43:31;;;;;;;1.98;0.70;;;;;;;4.48;53.55;99460.63;5092774;28;20123;-57
2023/03/12 06:45:57;;;;;;;4.43;0.63;;;;;;;4.66;52.99;99478.59;5094446;28;20093;-57
2023/03/12 06:48:24;;;;;;;3.22;0.70;;;;;;;4.48;53.71;99462.38;5093209;28;20546;-57
2023/03/12 06:50:50;;;;;;;1.92;0.80;;;;;;;4.29;53.95;99472.97;5093881;28;20028;-57
2023/03/12 06:53:16;;;;;;;4.88;0.90;;;;;;;4.75;52.95;99479.38;5080778;28;20043;-58
2023/03/12 06:55:43;;;;;;;5.32;0.68;;;;;;;4.88;52.14;99483.56;5094057;28;20039;-57
2023/03/12 06:58:09;;;;;;;3.22;0.88;;;;;;;5.03;52.16;99482.50;5095125;28;20483;-57
2023/03/12 07:00:34;;;;;;;1.38;0.70;;;;;;;4.58;53.13;99492.59;5110935;28;20051;-58
2023/03/12 07:03:00;;;;;;;7.40;1.05;;;;;;;4.56;52.69;99513.44;5074307;28;20123;-58
2023/03/12 07:05:26;;;;;;;3.58;0.88;;;;;;;4.79;51.85;99513.19;5091163;28;20040;-59
2023/03/12 07:07:52;;;;;;;3.90;0.70;;;;;;;5.08;51.40;99505.00;5093284;28;20035;-56
2023/03/12 07:10:17;;;;;;;2.40;0.70;;;;;;;5.06;51.35;99505.88;5093817;28;20127;-57
2023/03/12 07:12:44;;;;;;;4.13;0.80;;;;;;;5.32;50.93;99502.94;5094710;28;20395;-57
2023/03/12 07:15:10;;;;;;;3.08;0.70;;;;;;;4.91;50.89;99517.38;5093018;28;20046;-57
2023/03/12 07:17:36;;;;;;;4.38;0.75;;;;;;;4.94;51.02;99504.31;5088695;28;20032;-56
2023/03/12 07:20:02;;;;;;;3.90;0.70;;;;;;;5.53;50.01;99489.59;5091198;28;20124;-58
2023/03/12 07:22:27;;;;;;;3.67;1.10;;;;;;;5.72;49.80;99507.56;5094838;28;20112;-57
2023/03/12 07:24:53;;;;;;;2.58;0.85;;;;;;;5.34;50.00;99508.97;5093425;28;20392;-59
2023/03/12 07:27:18;;;;;;;2.20;0.80;;;;;;;5.71;49.15;99513.66;5093612;28;20394;-58
2023/03/12 07:29:44;;;;;;;4.88;1.10;;;;;;;5.44;50.01;99507.97;5089772;28;20527;-59
2023/03/12 07:32:10;;;;;;;4.28;1.00;;;;;;;5.66;48.55;99518.91;5088540;28;20036;-58
2023/03/12 07:34:35;;;;;;;3.50;1.00;;;;;;;5.75;48.84;99517.94;5090884;28;20044;-59
2023/03/12 07:37:01;;;;;;;4.05;0.77;;;;;;;5.54;48.41;99513.88;5092175;28;20135;-58
2023/03/12 07:39:26;;;;;;;6.05;0.93;;;;;;;6.09;47.54;99542.59;5092417;28;20503;-57
2023/03/12 07:41:53;;;;;;;4.03;0.70;;;;;;;5.59;48.40;99539.03;5093893;28;20051;-57
2023/03/12 07:44:19;;;;;;;4.30;1.38;;;;;;;5.82;47.76;99530.81;5093722;28;20035;-58
2023/03/12 07:46:44;;;;;;;5.45;0.80;;;;;;;5.75;47.68;99538.78;5093985;28;20040;-58
2023/03/12 07:49:10;;;;;;;3.28;0.88;;;;;;;6.14;47.22;99539.91;5092386;28;20048;-58
2023/03/12 07:51:35;;;;;;;7.70;1.80;;;;;;;6.10;45.65;99544.34;5093923;28;20035;-59
2023/03/12 07:54:01;;;;;;;6.60;1.50;;;;;;;6.50;46.63;99550.56;5093540;28;20032;-59
2023/03/12 07:56:26;;;;;;;4.70;1.48;;;;;;;6.53;45.36;99550.53;5091849;28;20039;-59
2023/03/12 07:58:52;;;;;;;5.68;1.15;;;;;;;6.51;45.82;99552.31;5094108;28;20081;-59
2023/03/12 08:01:17;;;;;;;4.20;1.35;;;;;;;6.27;45.81;99540.56;5093823;28;20470;-58
2023/03/12 08:03:43;;;;;;;4.50;1.02;;;;;;;6.38;44.97;99552.53;5094050;28;20028;-58
2023/03/12 08:06:09;;;;;;;4.32;1.08;;;;;;;7.00;45.08;99536.56;5094034;28;20388;-58
2023/03/12 08:08:37;;;;;;;5.40;1.30;;;;;;;6.65;44.73;99553.75;5093838;28;20111;-59
2023/03/12 08:11:03;;;;;;;2.80;0.68;;;;;;;6.75;45.10;99554.47;5093860;28;20035;-58
2023/03/12 08:13:30;;;;;;;4.60;1.10;;;;;;;6.69;45.01;99553.72;5093875;28;20040;-59
2023/03/12 08:15:55;;;;;;;4.95;1.00;;;;;;;6.76;44.15;99565.78;5092263;28;20030;-58
2023/03/12 08:18:23;;;;;;;4.32;1.00;;;;;;;6.73;43.15;99560.59;5093612;28;20446;-59
2023/03/12 08:20:53;;;;;;;4.25;1.40;;;;;;;6.44;43.78;99567.22;5092097;28;20027;-59
2023/03/12 08:23:20;;;;;;;3.35;1.10;;;;;;;6.73;43.43;99553.63;5093617;28;20123;-58
2023/03/12 08:25:47;;;;;;;4.57;0.80;;;;;;;7.21;41.89;99557.91;5075239;28;20132;-59
2023/03/12 08:28:13;;;;;;;4.85;1.05;;;;;;;6.75;42.73;99556.22;5089901;28;20096;-59
2023/03/12 08:30:38;;;;;;;4.22;0.98;;;;;;;7.38;42.19;99564.50;5093379;28;20444;-59
2023/03/12 08:33:04;;;;;;;3.67;0.95;;;;;;;7.67;42.37;99572.59;5092063;28;20455;-59
2023/03/12 08:35:29;;;;;;;3.85;0.88;;;;;;;7.43;40.73;99567.00;5093944;28;20414;-58
2023/03/12 08:37:55;;;;;;;7.03;1.90;;;;;;;7.85;40.63;99570.38;5093298;28;20048;-58
2023/03/12 08:40:23;;;;;;;3.25;0.90;;;;;;;8.61;40.81;99556.31;5092056;28;20055;-58
2023/03/12 08:42:49;;;;;;;2.40;0.75;;;;;;;8.74;39.34;99580.44;5091472;28;20475;-58
2023/03/12 08:45:14;;;;;;;3.53;1.02;;;;;;;8.23;40.35;99576.47;5093194;28;20032;-59
2023/03/12 08:47:42;;;;;;;4.75;1.30;;;;;;;8.30;40.85;99583.28;5075636;28;20035;-58
2023/03/12 08:50:10;;;;;;;3.83;1.38;;;;;;;7.30;40.92;99596.88;5087988;28;20039;-58
2023/03/12 08:52:35;;;;;;;5.68;1.52;;;;;;;7.23;41.53;99600.53;5093308;28;20036;-58
2023/03/12 08:55:01;;;;;;;4.13;1.25;;;;;;;7.21;41.96;99600.56;5090663;28;20039;-59
2023/03/12 08:57:27;;;;;;;5.35;1.60;;;;;;;8.23;40.34;99612.25;5092880;28;20059;-58
2023/03/12 08:59:53;;;;;;;3.55;1.33;;;;;;;9.04;39.31;99610.19;5089834;28;20486;-59
2023/03/12 09:02:18;;;;;;;4.97;1.05;;;;;;;9.19;38.22;99609.75;5060468;28;20033;-58
2023/03/12 09:04:47;;;;;;;4.90;1.10;;;;;;;9.43;36.62;99602.94;5078829;28;20036;-59
2023/03/12 09:07:13;;;;;;;6.25;1.05;;;;;;;9.78;36.15;99611.53;5093199;28;20082;-59
2023/03/12 09:09:38;;;;;;;3.13;0.90;;;;;;;9.44;37.04;99607.28;5094996;28;20055;-58
2023/03/12 09:12:04;;;;;;;4.30;1.20;;;;;;;9.74;35.86;99607.28;5095793;28;20040;-58
2023/03/12 09:14:29;;;;;;;2.78;1.08;;;;;;;9.73;36.60;99623.91;5095117;28;20115;-58
2023/03/12 09:16:56;;;;;;;3.65;1.60;;;;;;;9.45;36.34;99629.13;5097248;28;20028;-58
2023/03/12 09:19:21;;;;;;;10.50;2.35;;;;;;;8.99;37.14;99627.78;5097114;28;20032;-58
2023/03/12 09:21:47;;;;;;;8.55;1.58;;;;;;;9.01;38.09;99644.31;5097026;28;20077;-58
2023/03/12 09:24:12;;;;;;;11.60;2.88;;;;;;;8.53;36.58;99655.16;5096003;28;20031;-58
2023/03/12 09:26:38;;;;;;;3.80;1.33;;;;;;;8.81;36.72;99650.09;5078733;28;20055;-58
2023/03/12 09:29:04;;;;;;;8.77;2.55;;;;;;;8.97;36.63;99647.91;5095741;28;20028;-59
2023/03/12 09:31:30;;;;;;;9.13;2.88;;;;;;;9.23;36.09;99653.31;5092750;28;20044;-57
2023/03/12 09:33:55;;;;;;;10.27;2.75;;;;;;;8.98;36.74;99661.00;5085531;28;20491;-60
2023/03/12 09:36:21;;;;;;;7.18;1.67;;;;;;;8.95;36.47;99647.97;5093355;28;20467;-58
2023/03/12 09:38:46;;;;;;;7.13;1.85;;;;;;;8.86;35.77;99646.47;5096256;28;20187;-59
2023/03/12 09:41:26;;;;;;;4.72;1.48;;;;;;;9.97;33.02;99662.53;5096529;28;20043;-58
2023/03/12 09:43:57;;;;;;;2.80;1.15;;;;;;;10.42;34.37;99655.94;5095531;28;20028;-60
2023/03/12 09:46:29;;;;;;;6.25;1.60;;;;;;;9.53;34.62;99662.06;5096709;28;20034;-59
2023/03/12 09:49:00;;;;;;;6.88;2.10;;;;;;;9.28;33.98;99701.25;5096871;28;20476;-59
2023/03/12 09:51:34;;;;;;;5.10;2.33;;;;;;;9.10;33.77;99670.28;5095324;28;20032;-59
2023/03/12 09:54:04;;;;;;;4.07;1.38;;;;;;;8.74;37.30;99672.13;5095163;28;20035;-59
2023/03/12 09:56:30;;;;;;;3.55;1.20;;;;;;;9.05;36.08;99686.13;5095306;28;20024;-59
2023/03/12 09:58:55;;;;;;;5.20;1.50;;;;;;;8.63;35.53;99686.34;5096520;28;20383;-59
2023/03/12 10:01:21;;;;;;;6.03;1.52;;;;;;;8.93;34.82;99683.81;5096185;28;20392;-58
2023/03/12 10:04:09;;;;;;;5.65;1.95;;;;;;;9.36;32.40;99693.16;5096293;28;20031;-58
2023/03/12 10:06:48;;;;;;;5.70;1.60;;;;;;;8.49;33.23;99698.03;5096131;28;20031;-58
2023/03/12 10:09:33;;;;;;;5.07;1.80;;;;;;;8.81;33.05;99734.75;5096239;28;20036;-58
2023/03/12 10:12:07;;;;;;;4.30;1.60;;;;;;;8.37;35.87;99707.03;5096125;28;20031;-59
2023/03/12 10:14:46;;;;;;;3.30;0.85;;;;;;;8.44;35.90;99719.09;5096193;28;20103;-59
2023/03/12 10:17:41;;;;;;;3.55;1.00;;;;;;;8.08;35.13;99719.00;5096325;28;20044;-59
2023/03/12 10:20:32;;;;;;;3.33;0.90;;;;;;;8.25;33.56;99725.59;5094435;28;20387;-60
2023/03/12 10:23:03;;;;;;;3.03;1.08;;;;;;;8.62;34.36;99713.44;5095893;28;20127;-59
2023/03/12 10:25:44;;;;;;;4.28;1.65;;;;;;;9.25;32.08;99709.19;5096360;28;20039;-59
2023/03/12 10:28:17;;;;;;;7.70;1.80;;;;;;;8.99;31.21;99740.47;5094805;28;20060;-59
2023/03/12 10:30:54;;;;;;;9.30;2.20;;;;;;;9.43;31.20;99723.56;5095937;28;20032;-58
2023/03/12 10:33:22;;;;;;;6.55;2.05;;;;;;;9.26;33.00;99717.94;5094379;28;20043;-59
2023/03/12 10:35:49;;;;;;;6.35;2.38;;;;;;;9.63;32.40;99725.63;5094390;28;20032;-58
2023/03/12 10:38:26;;;;;;;6.32;2.00;;;;;;;9.41;31.53;99732.38;5095841;28;20484;-60
2023/03/12 10:40:52;;;;;;;8.35;2.00;;;;;;;9.41;32.75;99763.81;5095512;28;20076;-59
2023/03/12 10:43:17;;;;;;;8.40;3.22;;;;;;;8.97;32.55;99748.34;5094433;28;20036;-59
2023/03/12 10:45:49;;;;;;;6.43;1.67;;;;;;;8.76;33.41;99748.88;5094232;28;20407;-61
2023/03/12 10:48:21;;;;;;;6.82;2.00;;;;;;;8.93;32.06;99757.19;5095441;28;20040;-60
2023/03/12 10:51:19;;;;;;;7.85;2.17;;;;;;;9.39;31.61;99750.78;5094359;28;20031;-60
2023/03/12 10:53:46;;;;;;;3.65;1.85;;;;;;;9.72;32.27;99766.47;5061121;28;20036;-58
2023/03/12 10:56:13;;;;;;;3.92;1.40;;;;;;;9.13;32.55;99762.78;5095300;28;20074;-59
2023/03/12 10:58:44;;;;;;;4.32;1.15;;;;;;;8.74;32.55;99756.78;5095061;28;20028;-59
2023/03/12 11:01:19;;;;;;;4.00;1.50;;;;;;;8.41;32.19;99804.69;5094031;28;20077;-59
2023/03/12 11:03:45;;;;;;;5.40;2.10;;;;;;;8.59;33.39;99778.97;5094989;28;20032;-59
2023/03/12 11:06:20;;;;;;;6.07;2.17;;;;;;;8.21;32.64;99760.59;5094015;28;20032;-59
2023/03/12 11:09:13;;;;;;;5.38;1.90;;;;;;;7.92;32.54;99785.63;5095171;28;20032;-59
2023/03/12 11:11:38;;;;;;;8.45;2.13;;;;;;;8.53;31.57;99768.63;5095156;28;20123;-59
2023/03/12 11:14:14;;;;;;;5.15;1.95;;;;;;;9.24;30.71;99798.34;5095006;28;20497;-58
2023/03/12 11:16:40;;;;;;;5.00;1.65;;;;;;;9.37;30.65;99777.03;5095038;28;20024;-59
2023/03/12 11:19:05;;;;;;;3.20;1.08;;;;;;;9.22;30.01;99800.16;5094711;28;20119;-59
2023/03/12 11:21:35;;;;;;;6.28;1.90;;;;;;;9.87;29.58;99780.03;5093229;28;20039;-58
2023/03/12 11:24:06;;;;;;;7.07;1.58;;;;;;;9.94;29.41;99788.59;5094669;28;20031;-58
2023/03/12 11:27:10;;;;;;;6.63;1.90;;;;;;;10.28;28.99;99782.38;5094494;28;20032;-59
2023/03/12 11:29:44;;;;;;;7.72;1.80;;;;;;;10.12;28.75;99795.94;5094654;28;20107;-58
2023/03/12 11:32:15;;;;;;;4.72;1.90;;;;;;;10.29;29.54;99777.13;5094122;28;20028;-59
2023/03/12 11:34:42;;;;;;;7.35;2.47;;;;;;;10.00;29.84;99804.16;5094671;28;20028;-60
2023/03/12 11:37:19;;;;;;;5.82;1.98;;;;;;;9.89;29.81;99808.84;5094593;28;20063;-59
2023/03/12 11:40:27;;;;;;;7.30;1.60;;;;;;;9.57;29.33;99788.75;5093263;28;20047;-59
2023/03/12 11:43:17;;;;;;;5.68;1.70;;;;;;;9.88;29.27;99784.38;5086107;28;20059;-59
2023/03/12 11:45:42;;;;;;;3.65;1.20;;;;;;;9.95;29.82;99792.94;5093027;28;20032;-58